Terminal Aerodrome Forecast
Issued by NWS

Home | Current Version | Previous Version | Text Only | Print | Product List | Glossary On
Versions: 1 2 3 4 5 6 7 8 9 10 11 12 13 14 15 16 17 18 19 20 21 22
798
FTUS43 KICT 051740
TAFCNU
TAF
KCNU 051740Z 0518/0618 17011KT P6SM SCT006 SCT015
     FM060000 16007KT P6SM SCT250
     FM060400 15004KT 3SM BR BKN020
     FM060900 34012KT P6SM BKN020
     FM061100 35013G21KT P6SM SCT035=

USA.gov is the U.S. government's official web portal to all federal, state and local government web resources and services.